sensor_id;sensor_type;location;lat;lon;timestamp;P1;durP1;ratioP1;P2;durP2;ratioP2
16015;SDS011;8112;53.592;10.184;2024-02-15T00:02:44;22.20;;;12.43;;
16015;SDS011;8112;53.592;10.184;2024-02-15T00:07:48;21.93;;;13.57;;
16015;SDS011;8112;53.592;10.184;2024-02-15T00:12:50;21.00;;;11.90;;
16015;SDS011;8112;53.592;10.184;2024-02-15T00:17:52;19.43;;;11.43;;
16015;SDS011;8112;53.592;10.184;2024-02-15T00:22:55;21.07;;;11.97;;
16015;SDS011;8112;53.592;10.184;2024-02-15T00:27:57;19.83;;;12.10;;
16015;SDS011;8112;53.592;10.184;2024-02-15T00:33:00;19.23;;;12.00;;
16015;SDS011;8112;53.592;10.184;2024-02-15T00:38:04;19.47;;;12.03;;
16015;SDS011;8112;53.592;10.184;2024-02-15T00:43:07;20.77;;;12.90;;
16015;SDS011;8112;53.592;10.184;2024-02-15T00:48:09;20.23;;;13.60;;
16015;SDS011;8112;53.592;10.184;2024-02-15T00:53:12;22.17;;;13.77;;
16015;SDS011;8112;53.592;10.184;2024-02-15T00:58:16;24.67;;;14.23;;
16015;SDS011;8112;53.592;10.184;2024-02-15T01:03:18;25.70;;;14.80;;
16015;SDS011;8112;53.592;10.184;2024-02-15T01:08:22;26.90;;;15.90;;
16015;SDS011;8112;53.592;10.184;2024-02-15T01:13:26;24.27;;;14.50;;
16015;SDS011;8112;53.592;10.184;2024-02-15T01:18:27;25.03;;;15.03;;
16015;SDS011;8112;53.592;10.184;2024-02-15T01:23:32;25.63;;;15.83;;
16015;SDS011;8112;53.592;10.184;2024-02-15T01:28:36;28.37;;;16.10;;
16015;SDS011;8112;53.592;10.184;2024-02-15T01:33:38;26.47;;;16.17;;
16015;SDS011;8112;53.592;10.184;2024-02-15T01:38:44;27.60;;;15.67;;
16015;SDS011;8112;53.592;10.184;2024-02-15T01:43:46;27.87;;;17.20;;
16015;SDS011;8112;53.592;10.184;2024-02-15T01:48:50;26.93;;;17.53;;
16015;SDS011;8112;53.592;10.184;2024-02-15T01:53:57;29.07;;;16.53;;
16015;SDS011;8112;53.592;10.184;2024-02-15T01:59:01;26.33;;;16.00;;
16015;SDS011;8112;53.592;10.184;2024-02-15T02:04:03;26.53;;;15.37;;
16015;SDS011;8112;53.592;10.184;2024-02-15T02:09:07;25.67;;;15.97;;
16015;SDS011;8112;53.592;10.184;2024-02-15T02:14:13;27.87;;;15.33;;
16015;SDS011;8112;53.592;10.184;2024-02-15T02:19:15;26.73;;;15.73;;
16015;SDS011;8112;53.592;10.184;2024-02-15T02:24:21;26.00;;;15.80;;
16015;SDS011;8112;53.592;10.184;2024-02-15T02:29:25;25.83;;;16.33;;
16015;SDS011;8112;53.592;10.184;2024-02-15T02:34:30;26.50;;;15.70;;
16015;SDS011;8112;53.592;10.184;2024-02-15T02:39:32;26.60;;;15.83;;
16015;SDS011;8112;53.592;10.184;2024-02-15T02:44:40;29.20;;;16.73;;
16015;SDS011;8112;53.592;10.184;2024-02-15T02:49:42;30.37;;;16.60;;
16015;SDS011;8112;53.592;10.184;2024-02-15T02:54:44;26.97;;;16.47;;
16015;SDS011;8112;53.592;10.184;2024-02-15T02:59:47;27.87;;;15.70;;
16015;SDS011;8112;53.592;10.184;2024-02-15T03:04:50;26.47;;;15.07;;
16015;SDS011;8112;53.592;10.184;2024-02-15T03:09:53;25.73;;;14.30;;
16015;SDS011;8112;53.592;10.184;2024-02-15T03:14:58;25.03;;;14.87;;
16015;SDS011;8112;53.592;10.184;2024-02-15T03:19:59;24.30;;;14.40;;
16015;SDS011;8112;53.592;10.184;2024-02-15T03:25:02;24.73;;;13.93;;
16015;SDS011;8112;53.592;10.184;2024-02-15T03:30:10;23.87;;;15.13;;
16015;SDS011;8112;53.592;10.184;2024-02-15T03:35:12;23.93;;;13.27;;
16015;SDS011;8112;53.592;10.184;2024-02-15T03:40:17;23.30;;;12.93;;
16015;SDS011;8112;53.592;10.184;2024-02-15T03:45:21;21.93;;;13.37;;
16015;SDS011;8112;53.592;10.184;2024-02-15T03:50:25;23.27;;;13.40;;
16015;SDS011;8112;53.592;10.184;2024-02-15T03:55:28;20.43;;;12.47;;
16015;SDS011;8112;53.592;10.184;2024-02-15T04:00:32;20.10;;;11.57;;
16015;SDS011;8112;53.592;10.184;2024-02-15T04:05:34;17.93;;;11.10;;
16015;SDS011;8112;53.592;10.184;2024-02-15T04:10:36;21.93;;;12.43;;
16015;SDS011;8112;53.592;10.184;2024-02-15T04:15:39;19.93;;;12.43;;
16015;SDS011;8112;53.592;10.184;2024-02-15T04:20:43;25.13;;;12.63;;
16015;SDS011;8112;53.592;10.184;2024-02-15T04:25:46;27.07;;;14.90;;
16015;SDS011;8112;53.592;10.184;2024-02-15T04:30:52;32.50;;;14.67;;
16015;SDS011;8112;53.592;10.184;2024-02-15T04:35:55;28.23;;;15.07;;
16015;SDS011;8112;53.592;10.184;2024-02-15T04:41:02;26.07;;;15.67;;
16015;SDS011;8112;53.592;10.184;2024-02-15T04:46:10;26.73;;;15.83;;
16015;SDS011;8112;53.592;10.184;2024-02-15T04:51:12;34.57;;;16.33;;
16015;SDS011;8112;53.592;10.184;2024-02-15T04:56:15;30.83;;;16.30;;
16015;SDS011;8112;53.592;10.184;2024-02-15T05:01:19;28.67;;;16.10;;
16015;SDS011;8112;53.592;10.184;2024-02-15T05:06:22;31.10;;;16.50;;
16015;SDS011;8112;53.592;10.184;2024-02-15T05:11:24;33.97;;;17.90;;
16015;SDS011;8112;53.592;10.184;2024-02-15T05:16:28;36.60;;;17.67;;
16015;SDS011;8112;53.592;10.184;2024-02-15T05:21:32;33.07;;;17.77;;
16015;SDS011;8112;53.592;10.184;2024-02-15T05:26:35;40.23;;;18.63;;
16015;SDS011;8112;53.592;10.184;2024-02-15T05:31:39;34.43;;;17.97;;
16015;SDS011;8112;53.592;10.184;2024-02-15T05:36:41;37.87;;;19.93;;
16015;SDS011;8112;53.592;10.184;2024-02-15T05:41:43;32.57;;;17.97;;
16015;SDS011;8112;53.592;10.184;2024-02-15T05:46:46;37.90;;;19.53;;
16015;SDS011;8112;53.592;10.184;2024-02-15T05:51:49;36.03;;;18.63;;
16015;SDS011;8112;53.592;10.184;2024-02-15T05:56:51;32.00;;;18.13;;
16015;SDS011;8112;53.592;10.184;2024-02-15T06:01:57;33.23;;;18.03;;
16015;SDS011;8112;53.592;10.184;2024-02-15T06:06:59;34.87;;;18.47;;
16015;SDS011;8112;53.592;10.184;2024-02-15T06:12:01;34.67;;;17.73;;
16015;SDS011;8112;53.592;10.184;2024-02-15T06:17:04;39.60;;;19.47;;
16015;SDS011;8112;53.592;10.184;2024-02-15T06:22:06;37.83;;;18.73;;
16015;SDS011;8112;53.592;10.184;2024-02-15T06:27:08;34.33;;;18.27;;
16015;SDS011;8112;53.592;10.184;2024-02-15T06:32:13;41.00;;;20.17;;
16015;SDS011;8112;53.592;10.184;2024-02-15T06:37:35;40.77;;;17.53;;
16015;SDS011;8112;53.592;10.184;2024-02-15T06:42:55;33.23;;;16.93;;
16015;SDS011;8112;53.592;10.184;2024-02-15T06:47:59;39.17;;;18.80;;
16015;SDS011;8112;53.592;10.184;2024-02-15T06:53:01;37.27;;;17.77;;
16015;SDS011;8112;53.592;10.184;2024-02-15T06:58:03;34.43;;;17.67;;
16015;SDS011;8112;53.592;10.184;2024-02-15T07:03:07;35.33;;;17.57;;
16015;SDS011;8112;53.592;10.184;2024-02-15T07:08:11;39.60;;;18.83;;
16015;SDS011;8112;53.592;10.184;2024-02-15T07:13:16;45.87;;;19.10;;
16015;SDS011;8112;53.592;10.184;2024-02-15T07:18:21;37.27;;;18.37;;
16015;SDS011;8112;53.592;10.184;2024-02-15T07:23:23;34.87;;;16.70;;
16015;SDS011;8112;53.592;10.184;2024-02-15T07:28:25;36.77;;;17.83;;
16015;SDS011;8112;53.592;10.184;2024-02-15T07:33:32;36.47;;;16.77;;
16015;SDS011;8112;53.592;10.184;2024-02-15T07:38:37;39.10;;;17.47;;
16015;SDS011;8112;53.592;10.184;2024-02-15T07:43:40;38.00;;;17.53;;
16015;SDS011;8112;53.592;10.184;2024-02-15T07:48:44;37.80;;;17.53;;
16015;SDS011;8112;53.592;10.184;2024-02-15T07:53:46;36.83;;;17.30;;
16015;SDS011;8112;53.592;10.184;2024-02-15T07:58:49;39.00;;;17.93;;
16015;SDS011;8112;53.592;10.184;2024-02-15T08:03:53;34.30;;;16.70;;
16015;SDS011;8112;53.592;10.184;2024-02-15T08:08:55;37.07;;;16.63;;
16015;SDS011;8112;53.592;10.184;2024-02-15T08:13:58;36.97;;;17.00;;
16015;SDS011;8112;53.592;10.184;2024-02-15T08:19:01;35.70;;;16.20;;
16015;SDS011;8112;53.592;10.184;2024-02-15T08:24:03;30.00;;;16.73;;
16015;SDS011;8112;53.592;10.184;2024-02-15T08:29:08;35.13;;;16.87;;
16015;SDS011;8112;53.592;10.184;2024-02-15T08:34:13;31.27;;;16.20;;
16015;SDS011;8112;53.592;10.184;2024-02-15T08:39:18;28.03;;;14.77;;
16015;SDS011;8112;53.592;10.184;2024-02-15T08:44:21;30.27;;;14.13;;
16015;SDS011;8112;53.592;10.184;2024-02-15T08:49:25;28.57;;;15.33;;
16015;SDS011;8112;53.592;10.184;2024-02-15T08:54:27;27.60;;;13.23;;
16015;SDS011;8112;53.592;10.184;2024-02-15T08:59:32;20.50;;;11.97;;
16015;SDS011;8112;53.592;10.184;2024-02-15T09:04:36;22.37;;;11.60;;
16015;SDS011;8112;53.592;10.184;2024-02-15T09:09:38;22.87;;;11.97;;
16015;SDS011;8112;53.592;10.184;2024-02-15T09:14:40;20.40;;;11.00;;
16015;SDS011;8112;53.592;10.184;2024-02-15T09:19:46;19.50;;;10.30;;
16015;SDS011;8112;53.592;10.184;2024-02-15T09:24:49;17.43;;;9.83;;
16015;SDS011;8112;53.592;10.184;2024-02-15T09:29:51;22.23;;;10.33;;
16015;SDS011;8112;53.592;10.184;2024-02-15T09:34:57;16.37;;;9.77;;
16015;SDS011;8112;53.592;10.184;2024-02-15T09:39:59;17.73;;;9.10;;
16015;SDS011;8112;53.592;10.184;2024-02-15T09:45:06;15.27;;;8.80;;
16015;SDS011;8112;53.592;10.184;2024-02-15T09:50:13;13.60;;;8.80;;
16015;SDS011;8112;53.592;10.184;2024-02-15T09:55:16;18.93;;;9.50;;
16015;SDS011;8112;53.592;10.184;2024-02-15T10:00:18;12.40;;;8.13;;
16015;SDS011;8112;53.592;10.184;2024-02-15T10:05:22;14.17;;;8.80;;
16015;SDS011;8112;53.592;10.184;2024-02-15T10:10:27;13.70;;;8.57;;
16015;SDS011;8112;53.592;10.184;2024-02-15T10:15:30;12.80;;;8.77;;
16015;SDS011;8112;53.592;10.184;2024-02-15T10:20:36;17.70;;;9.10;;
16015;SDS011;8112;53.592;10.184;2024-02-15T10:25:39;14.97;;;9.77;;
16015;SDS011;8112;53.592;10.184;2024-02-15T10:30:43;16.40;;;9.53;;
16015;SDS011;8112;53.592;10.184;2024-02-15T10:35:49;16.33;;;9.93;;
16015;SDS011;8112;53.592;10.184;2024-02-15T10:40:51;15.30;;;10.07;;
16015;SDS011;8112;53.592;10.184;2024-02-15T10:46:07;17.87;;;10.33;;
16015;SDS011;8112;53.592;10.184;2024-02-15T10:51:12;17.77;;;11.27;;
16015;SDS011;8112;53.592;10.184;2024-02-15T10:56:18;19.70;;;12.10;;
16015;SDS011;8112;53.592;10.184;2024-02-15T11:01:26;21.33;;;12.90;;
16015;SDS011;8112;53.592;10.184;2024-02-15T11:06:33;19.37;;;13.33;;
16015;SDS011;8112;53.592;10.184;2024-02-15T11:11:36;26.13;;;15.20;;
16015;SDS011;8112;53.592;10.184;2024-02-15T11:16:44;23.23;;;15.33;;
16015;SDS011;8112;53.592;10.184;2024-02-15T11:21:53;23.67;;;14.23;;
16015;SDS011;8112;53.592;10.184;2024-02-15T11:26:57;24.23;;;14.37;;
16015;SDS011;8112;53.592;10.184;2024-02-15T11:32:02;22.10;;;14.43;;
16015;SDS011;8112;53.592;10.184;2024-02-15T11:37:07;26.93;;;15.27;;
16015;SDS011;8112;53.592;10.184;2024-02-15T11:42:24;28.40;;;16.13;;
16015;SDS011;8112;53.592;10.184;2024-02-15T11:47:28;26.13;;;16.00;;
16015;SDS011;8112;53.592;10.184;2024-02-15T11:52:34;26.63;;;16.83;;
16015;SDS011;8112;53.592;10.184;2024-02-15T11:57:37;27.60;;;17.60;;
16015;SDS011;8112;53.592;10.184;2024-02-15T12:02:48;24.23;;;15.80;;
16015;SDS011;8112;53.592;10.184;2024-02-15T12:08:09;32.10;;;17.00;;
16015;SDS011;8112;53.592;10.184;2024-02-15T12:13:25;27.97;;;17.00;;
16015;SDS011;8112;53.592;10.184;2024-02-15T12:18:54;26.30;;;17.03;;
16015;SDS011;8112;53.592;10.184;2024-02-15T12:23:58;27.27;;;17.47;;
16015;SDS011;8112;53.592;10.184;2024-02-15T12:29:00;27.47;;;18.73;;
16015;SDS011;8112;53.592;10.184;2024-02-15T12:34:02;28.27;;;17.87;;
16015;SDS011;8112;53.592;10.184;2024-02-15T12:39:09;23.83;;;15.97;;
16015;SDS011;8112;53.592;10.184;2024-02-15T12:44:17;28.00;;;17.60;;
16015;SDS011;8112;53.592;10.184;2024-02-15T12:49:27;24.63;;;15.70;;
16015;SDS011;8112;53.592;10.184;2024-02-15T12:54:32;24.63;;;15.70;;
16015;SDS011;8112;53.592;10.184;2024-02-15T12:59:34;23.57;;;15.03;;
16015;SDS011;8112;53.592;10.184;2024-02-15T13:04:37;20.37;;;14.00;;
16015;SDS011;8112;53.592;10.184;2024-02-15T13:09:41;19.33;;;13.83;;
16015;SDS011;8112;53.592;10.184;2024-02-15T13:14:43;16.73;;;12.57;;
16015;SDS011;8112;53.592;10.184;2024-02-15T13:19:45;18.53;;;12.67;;
16015;SDS011;8112;53.592;10.184;2024-02-15T13:24:50;16.80;;;11.07;;
16015;SDS011;8112;53.592;10.184;2024-02-15T13:29:52;14.77;;;11.03;;
16015;SDS011;8112;53.592;10.184;2024-02-15T13:34:54;14.77;;;10.37;;
16015;SDS011;8112;53.592;10.184;2024-02-15T13:39:59;13.80;;;10.20;;
16015;SDS011;8112;53.592;10.184;2024-02-15T13:45:00;11.00;;;9.03;;
16015;SDS011;8112;53.592;10.184;2024-02-15T13:50:04;11.10;;;8.87;;
16015;SDS011;8112;53.592;10.184;2024-02-15T13:55:10;10.57;;;8.17;;
16015;SDS011;8112;53.592;10.184;2024-02-15T14:00:14;11.30;;;8.17;;
16015;SDS011;8112;53.592;10.184;2024-02-15T14:05:23;11.07;;;8.70;;
16015;SDS011;8112;53.592;10.184;2024-02-15T14:10:30;13.43;;;8.50;;
16015;SDS011;8112;53.592;10.184;2024-02-15T14:15:35;11.33;;;8.20;;
16015;SDS011;8112;53.592;10.184;2024-02-15T14:20:39;10.97;;;7.13;;
16015;SDS011;8112;53.592;10.184;2024-02-15T14:25:44;10.00;;;7.77;;
16015;SDS011;8112;53.592;10.184;2024-02-15T14:30:46;13.30;;;8.57;;
16015;SDS011;8112;53.592;10.184;2024-02-15T14:36:06;9.50;;;7.90;;
16015;SDS011;8112;53.592;10.184;2024-02-15T14:41:11;10.63;;;7.90;;
16015;SDS011;8112;53.592;10.184;2024-02-15T14:46:13;9.87;;;8.53;;
16015;SDS011;8112;53.592;10.184;2024-02-15T14:51:16;11.30;;;7.93;;
16015;SDS011;8112;53.592;10.184;2024-02-15T14:56:20;8.73;;;7.13;;
16015;SDS011;8112;53.592;10.184;2024-02-15T15:01:22;11.30;;;8.57;;
16015;SDS011;8112;53.592;10.184;2024-02-15T15:06:25;12.50;;;8.57;;
16015;SDS011;8112;53.592;10.184;2024-02-15T15:11:46;10.83;;;8.13;;
16015;SDS011;8112;53.592;10.184;2024-02-15T15:17:05;9.27;;;8.27;;
16015;SDS011;8112;53.592;10.184;2024-02-15T15:22:09;9.90;;;8.70;;
16015;SDS011;8112;53.592;10.184;2024-02-15T15:27:26;9.93;;;8.77;;
16015;SDS011;8112;53.592;10.184;2024-02-15T15:32:28;11.23;;;8.73;;
16015;SDS011;8112;53.592;10.184;2024-02-15T15:37:30;11.43;;;9.03;;
16015;SDS011;8112;53.592;10.184;2024-02-15T15:42:34;12.17;;;9.17;;
16015;SDS011;8112;53.592;10.184;2024-02-15T15:47:38;9.30;;;8.23;;
16015;SDS011;8112;53.592;10.184;2024-02-15T15:52:40;11.80;;;9.03;;
16015;SDS011;8112;53.592;10.184;2024-02-15T15:57:46;10.50;;;9.07;;
16015;SDS011;8112;53.592;10.184;2024-02-15T16:02:48;11.33;;;8.77;;
16015;SDS011;8112;53.592;10.184;2024-02-15T16:07:51;11.93;;;9.53;;
16015;SDS011;8112;53.592;10.184;2024-02-15T16:12:55;11.47;;;10.30;;
16015;SDS011;8112;53.592;10.184;2024-02-15T16:17:57;12.63;;;9.87;;
16015;SDS011;8112;53.592;10.184;2024-02-15T16:23:00;13.07;;;9.83;;
16015;SDS011;8112;53.592;10.184;2024-02-15T16:28:04;10.33;;;9.23;;
16015;SDS011;8112;53.592;10.184;2024-02-15T16:33:07;12.63;;;9.50;;
16015;SDS011;8112;53.592;10.184;2024-02-15T16:38:09;10.83;;;9.40;;
16015;SDS011;8112;53.592;10.184;2024-02-15T16:43:12;11.90;;;10.13;;
16015;SDS011;8112;53.592;10.184;2024-02-15T16:48:14;11.27;;;9.63;;
16015;SDS011;8112;53.592;10.184;2024-02-15T16:53:16;11.87;;;10.60;;
16015;SDS011;8112;53.592;10.184;2024-02-15T16:58:19;11.90;;;10.27;;
16015;SDS011;8112;53.592;10.184;2024-02-15T17:03:23;12.30;;;10.97;;
16015;SDS011;8112;53.592;10.184;2024-02-15T17:08:26;15.63;;;10.97;;
16015;SDS011;8112;53.592;10.184;2024-02-15T17:13:29;11.50;;;10.30;;
16015;SDS011;8112;53.592;10.184;2024-02-15T17:18:31;11.10;;;9.93;;
16015;SDS011;8112;53.592;10.184;2024-02-15T17:23:34;10.83;;;9.20;;
16015;SDS011;8112;53.592;10.184;2024-02-15T17:28:38;12.93;;;9.80;;
16015;SDS011;8112;53.592;10.184;2024-02-15T17:33:40;11.63;;;10.07;;
16015;SDS011;8112;53.592;10.184;2024-02-15T17:38:43;12.97;;;10.80;;
16015;SDS011;8112;53.592;10.184;2024-02-15T17:43:49;14.70;;;10.63;;
16015;SDS011;8112;53.592;10.184;2024-02-15T17:48:57;10.47;;;9.37;;
16015;SDS011;8112;53.592;10.184;2024-02-15T17:53:59;13.70;;;10.50;;
16015;SDS011;8112;53.592;10.184;2024-02-15T17:59:02;11.43;;;9.70;;
16015;SDS011;8112;53.592;10.184;2024-02-15T18:04:04;17.17;;;10.77;;
16015;SDS011;8112;53.592;10.184;2024-02-15T18:09:06;13.83;;;10.57;;
16015;SDS011;8112;53.592;10.184;2024-02-15T18:14:10;15.27;;;10.57;;
16015;SDS011;8112;53.592;10.184;2024-02-15T18:19:11;12.90;;;10.53;;
16015;SDS011;8112;53.592;10.184;2024-02-15T18:24:14;10.93;;;9.67;;
16015;SDS011;8112;53.592;10.184;2024-02-15T18:29:17;12.30;;;10.00;;
16015;SDS011;8112;53.592;10.184;2024-02-15T18:34:19;12.43;;;9.50;;
16015;SDS011;8112;53.592;10.184;2024-02-15T18:39:21;11.40;;;9.30;;
16015;SDS011;8112;53.592;10.184;2024-02-15T18:44:27;11.57;;;8.67;;
16015;SDS011;8112;53.592;10.184;2024-02-15T18:49:28;12.20;;;9.67;;
16015;SDS011;8112;53.592;10.184;2024-02-15T18:54:30;12.10;;;9.53;;
16015;SDS011;8112;53.592;10.184;2024-02-15T18:59:35;12.07;;;9.13;;
16015;SDS011;8112;53.592;10.184;2024-02-15T19:04:37;13.70;;;9.20;;
16015;SDS011;8112;53.592;10.184;2024-02-15T19:09:40;11.60;;;8.20;;
16015;SDS011;8112;53.592;10.184;2024-02-15T19:14:44;12.40;;;9.43;;
16015;SDS011;8112;53.592;10.184;2024-02-15T19:19:46;8.40;;;7.63;;
16015;SDS011;8112;53.592;10.184;2024-02-15T19:24:48;10.43;;;8.50;;
16015;SDS011;8112;53.592;10.184;2024-02-15T19:29:54;8.27;;;7.37;;
16015;SDS011;8112;53.592;10.184;2024-02-15T19:34:56;8.37;;;7.50;;
16015;SDS011;8112;53.592;10.184;2024-02-15T19:39:57;10.13;;;8.00;;
16015;SDS011;8112;53.592;10.184;2024-02-15T19:45:04;8.10;;;6.53;;
16015;SDS011;8112;53.592;10.184;2024-02-15T19:50:07;7.60;;;6.67;;
16015;SDS011;8112;53.592;10.184;2024-02-15T19:55:10;9.10;;;7.30;;
16015;SDS011;8112;53.592;10.184;2024-02-15T20:00:18;8.37;;;7.00;;
16015;SDS011;8112;53.592;10.184;2024-02-15T20:05:20;13.67;;;7.10;;
16015;SDS011;8112;53.592;10.184;2024-02-15T20:10:23;6.17;;;5.60;;
16015;SDS011;8112;53.592;10.184;2024-02-15T20:15:27;6.93;;;6.23;;
16015;SDS011;8112;53.592;10.184;2024-02-15T20:20:29;8.17;;;6.17;;
16015;SDS011;8112;53.592;10.184;2024-02-15T20:25:32;6.03;;;5.43;;
16015;SDS011;8112;53.592;10.184;2024-02-15T20:30:35;9.10;;;5.60;;
16015;SDS011;8112;53.592;10.184;2024-02-15T20:35:39;7.33;;;5.60;;
16015;SDS011;8112;53.592;10.184;2024-02-15T20:40:41;6.03;;;4.97;;
16015;SDS011;8112;53.592;10.184;2024-02-15T20:45:46;6.27;;;4.87;;
16015;SDS011;8112;53.592;10.184;2024-02-15T20:50:47;6.40;;;5.07;;
16015;SDS011;8112;53.592;10.184;2024-02-15T20:55:50;5.93;;;5.20;;
16015;SDS011;8112;53.592;10.184;2024-02-15T21:00:53;5.63;;;5.03;;
16015;SDS011;8112;53.592;10.184;2024-02-15T21:05:56;5.40;;;4.87;;
16015;SDS011;8112;53.592;10.184;2024-02-15T21:10:59;8.97;;;4.70;;
16015;SDS011;8112;53.592;10.184;2024-02-15T21:16:03;5.30;;;4.80;;
16015;SDS011;8112;53.592;10.184;2024-02-15T21:21:08;6.27;;;4.67;;
16015;SDS011;8112;53.592;10.184;2024-02-15T21:26:10;5.93;;;4.60;;
16015;SDS011;8112;53.592;10.184;2024-02-15T21:31:15;6.20;;;5.00;;
16015;SDS011;8112;53.592;10.184;2024-02-15T21:36:17;5.87;;;5.03;;
16015;SDS011;8112;53.592;10.184;2024-02-15T21:41:19;5.37;;;4.87;;
16015;SDS011;8112;53.592;10.184;2024-02-15T21:46:25;5.47;;;4.53;;
16015;SDS011;8112;53.592;10.184;2024-02-15T21:51:27;5.13;;;4.63;;
16015;SDS011;8112;53.592;10.184;2024-02-15T21:56:29;7.03;;;4.50;;
16015;SDS011;8112;53.592;10.184;2024-02-15T22:01:36;4.57;;;4.10;;
16015;SDS011;8112;53.592;10.184;2024-02-15T22:06:43;6.50;;;5.50;;
16015;SDS011;8112;53.592;10.184;2024-02-15T22:11:46;7.17;;;4.80;;
16015;SDS011;8112;53.592;10.184;2024-02-15T22:16:50;5.10;;;4.60;;
16015;SDS011;8112;53.592;10.184;2024-02-15T22:21:51;5.87;;;4.37;;
16015;SDS011;8112;53.592;10.184;2024-02-15T22:26:53;6.67;;;5.03;;
16015;SDS011;8112;53.592;10.184;2024-02-15T22:32:01;5.20;;;4.00;;
16015;SDS011;8112;53.592;10.184;2024-02-15T22:37:04;5.23;;;4.67;;
16015;SDS011;8112;53.592;10.184;2024-02-15T22:42:07;6.70;;;4.43;;
16015;SDS011;8112;53.592;10.184;2024-02-15T22:47:12;6.23;;;4.57;;
16015;SDS011;8112;53.592;10.184;2024-02-15T22:52:15;6.07;;;4.77;;
16015;SDS011;8112;53.592;10.184;2024-02-15T22:57:19;4.90;;;4.40;;
16015;SDS011;8112;53.592;10.184;2024-02-15T23:02:23;5.00;;;4.50;;
16015;SDS011;8112;53.592;10.184;2024-02-15T23:07:24;6.67;;;4.60;;
16015;SDS011;8112;53.592;10.184;2024-02-15T23:12:26;5.73;;;4.90;;
16015;SDS011;8112;53.592;10.184;2024-02-15T23:17:30;6.40;;;4.07;;
16015;SDS011;8112;53.592;10.184;2024-02-15T23:22:31;7.13;;;4.77;;
16015;SDS011;8112;53.592;10.184;2024-02-15T23:27:33;7.40;;;5.07;;
16015;SDS011;8112;53.592;10.184;2024-02-15T23:32:37;4.77;;;3.87;;
16015;SDS011;8112;53.592;10.184;2024-02-15T23:37:39;5.37;;;4.30;;
16015;SDS011;8112;53.592;10.184;2024-02-15T23:42:58;5.10;;;4.43;;
16015;SDS011;8112;53.592;10.184;2024-02-15T23:48:02;5.90;;;4.17;;
16015;SDS011;8112;53.592;10.184;2024-02-15T23:53:05;5.27;;;4.73;;
16015;SDS011;8112;53.592;10.184;2024-02-15T23:58:07;4.40;;;3.97;;
